createdAt,value
2023-03-08T00:01:55.964Z,21.95
2023-03-08T00:04:22.597Z,13.63
2023-03-08T00:06:49.130Z,14.95
2023-03-08T00:09:16.260Z,18.38
2023-03-08T00:11:43.571Z,15.55
2023-03-08T00:14:10.022Z,15.57
2023-03-08T00:16:36.853Z,17.35
2023-03-08T00:19:03.438Z,16.92
2023-03-08T00:21:30.048Z,13.20
2023-03-08T00:23:56.602Z,18.65
2023-03-08T00:26:23.131Z,14.70
2023-03-08T00:28:49.869Z,13.55
2023-03-08T00:31:16.439Z,16.50
2023-03-08T00:33:42.933Z,12.65
2023-03-08T00:36:14.694Z,14.48
2023-03-08T00:38:41.376Z,12.77
2023-03-08T00:41:08.017Z,15.90
2023-03-08T00:43:34.701Z,18.25
2023-03-08T00:46:04.137Z,16.52
2023-03-08T00:48:30.911Z,16.52
2023-03-08T00:50:57.396Z,16.40
2023-03-08T00:53:24.063Z,13.98
2023-03-08T00:55:52.631Z,13.02
2023-03-08T00:58:20.005Z,13.77
2023-03-08T01:00:47.259Z,13.80
2023-03-08T01:03:14.899Z,13.33
2023-03-08T01:05:47.170Z,15.73
2023-03-08T01:08:14.792Z,10.75
2023-03-08T01:10:47.594Z,14.65
2023-03-08T01:13:14.265Z,14.23
2023-03-08T01:15:41.046Z,12.48
2023-03-08T01:18:07.718Z,13.07
2023-03-08T01:20:35.178Z,10.75
2023-03-08T01:23:02.826Z,11.43
2023-03-08T01:25:29.772Z,17.45
2023-03-08T01:27:57.113Z,16.13
2023-03-08T01:30:24.085Z,11.90
2023-03-08T01:32:50.605Z,11.18
2023-03-08T01:35:18.044Z,12.83
2023-03-08T01:37:50.688Z,10.35
2023-03-08T01:40:17.252Z,11.05
2023-03-08T01:42:43.810Z,10.23
2023-03-08T01:45:47.769Z,15.75
2023-03-08T01:48:15.963Z,10.40
2023-03-08T01:51:15.689Z,11.60
2023-03-08T01:53:42.961Z,11.13
2023-03-08T01:56:13.410Z,8.25
2023-03-08T01:58:43.676Z,9.27
2023-03-08T02:01:10.957Z,10.63
2023-03-08T02:03:37.646Z,13.65
2023-03-08T02:06:05.890Z,12.05
2023-03-08T02:08:33.045Z,12.57
2023-03-08T02:11:01.772Z,11.70
2023-03-08T02:13:28.759Z,12.25
2023-03-08T02:15:57.158Z,12.20
2023-03-08T02:18:23.683Z,9.85
2023-03-08T02:20:50.290Z,14.02
2023-03-08T02:23:20.045Z,11.43
2023-03-08T02:25:59.708Z,10.00
2023-03-08T02:28:27.550Z,12.38
2023-03-08T02:30:55.852Z,13.98
2023-03-08T02:33:22.896Z,12.05
2023-03-08T02:35:50.481Z,12.23
2023-03-08T02:38:19.926Z,10.68
2023-03-08T02:40:46.434Z,10.20
2023-03-08T02:43:13.204Z,12.35
2023-03-08T02:45:39.743Z,12.35
2023-03-08T02:48:08.046Z,12.68
2023-03-08T02:50:34.575Z,13.40
2023-03-08T02:53:01.281Z,14.45
2023-03-08T02:55:27.780Z,12.93
2023-03-08T02:57:54.697Z,13.30
2023-03-08T03:00:21.459Z,15.20
2023-03-08T03:02:48.327Z,16.25
2023-03-08T03:05:14.830Z,14.75
2023-03-08T03:07:43.456Z,11.07
2023-03-08T03:10:15.872Z,11.88
2023-03-08T03:12:43.035Z,14.68
2023-03-08T03:15:13.618Z,13.82
2023-03-08T03:17:41.673Z,13.18
2023-03-08T03:20:09.588Z,11.68
2023-03-08T03:22:37.133Z,12.40
2023-03-08T03:25:06.240Z,11.02
2023-03-08T03:27:32.896Z,14.35
2023-03-08T03:29:59.492Z,12.50
2023-03-08T03:32:27.077Z,11.85
2023-03-08T03:34:54.157Z,16.73
2023-03-08T03:37:21.980Z,11.38
2023-03-08T03:39:49.372Z,10.93
2023-03-08T03:42:17.954Z,11.20
2023-03-08T03:44:51.810Z,13.43
2023-03-08T03:47:21.120Z,14.63
2023-03-08T03:49:52.314Z,14.38
2023-03-08T03:52:20.443Z,13.63
2023-03-08T03:54:56.729Z,11.80
2023-03-08T03:57:23.394Z,12.55
2023-03-08T03:59:50.369Z,9.75
2023-03-08T04:02:17.011Z,14.40
2023-03-08T04:04:50.616Z,11.80
2023-03-08T04:07:20.499Z,14.00
2023-03-08T04:09:55.233Z,12.77
2023-03-08T04:12:21.812Z,14.23
2023-03-08T04:14:49.035Z,11.65
2023-03-08T04:19:52.570Z,8.20
2023-03-08T04:22:20.891Z,11.60
2023-03-08T04:25:00.760Z,10.27
2023-03-08T04:27:43.374Z,12.25
2023-03-08T04:30:11.280Z,11.60
2023-03-08T04:32:38.142Z,16.80
2023-03-08T04:35:05.883Z,11.48
2023-03-08T04:37:34.133Z,10.20
2023-03-08T04:40:06.822Z,11.55
2023-03-08T04:42:37.111Z,11.63
2023-03-08T04:45:04.258Z,10.63
2023-03-08T04:47:33.294Z,12.10
2023-03-08T04:49:59.958Z,11.05
2023-03-08T04:52:26.506Z,15.20
2023-03-08T04:54:53.161Z,18.55
2023-03-08T04:57:22.729Z,13.20
2023-03-08T04:59:51.863Z,15.48
2023-03-08T05:02:19.567Z,17.98
2023-03-08T05:04:47.167Z,18.45
2023-03-08T05:07:13.792Z,13.18
2023-03-08T05:09:42.838Z,11.52
2023-03-08T05:12:09.693Z,14.20
2023-03-08T05:14:56.054Z,17.63
2023-03-08T05:17:24.873Z,11.52
2023-03-08T05:19:51.591Z,13.90
2023-03-08T05:22:22.483Z,18.77
2023-03-08T05:24:51.030Z,13.40
2023-03-08T05:27:18.606Z,15.23
2023-03-08T05:29:46.053Z,17.35
2023-03-08T05:32:13.554Z,20.45
2023-03-08T05:34:40.578Z,15.75
2023-03-08T05:37:10.501Z,12.38
2023-03-08T05:39:39.372Z,15.70
2023-03-08T05:42:14.823Z,15.45
2023-03-08T05:44:43.974Z,17.60
2023-03-08T05:47:13.015Z,15.25
2023-03-08T05:49:39.969Z,15.17
2023-03-08T05:52:07.739Z,14.98
2023-03-08T05:54:35.137Z,15.80
2023-03-08T05:57:06.829Z,24.00
2023-03-08T05:59:34.112Z,14.63
2023-03-08T06:02:03.375Z,15.45
2023-03-08T06:04:36.135Z,16.25
2023-03-08T06:07:02.831Z,20.42
2023-03-08T06:09:35.111Z,14.68
2023-03-08T06:12:02.916Z,14.93
2023-03-08T06:14:29.978Z,23.07
2023-03-08T06:16:57.215Z,13.27
2023-03-08T06:19:29.375Z,17.70
2023-03-08T06:24:23.913Z,17.92
2023-03-08T06:26:51.337Z,22.42
2023-03-08T06:29:17.930Z,25.13
2023-03-08T06:31:44.798Z,39.13
2023-03-08T06:34:12.621Z,43.38
2023-03-08T06:36:39.982Z,74.20
2023-03-08T06:39:06.609Z,98.38
2023-03-08T06:41:33.373Z,67.43
2023-03-08T06:44:02.074Z,39.10
2023-03-08T06:46:28.842Z,31.23
2023-03-08T06:48:55.606Z,25.83
2023-03-08T06:51:22.963Z,18.05
2023-03-08T06:53:50.158Z,15.37
2023-03-08T06:56:20.395Z,18.02
2023-03-08T06:58:46.933Z,15.98
2023-03-08T07:01:13.844Z,11.10
2023-03-08T07:03:40.500Z,16.92
2023-03-08T07:06:09.562Z,16.10
2023-03-08T07:08:37.352Z,17.85
2023-03-08T07:11:04.852Z,16.33
2023-03-08T07:13:31.531Z,16.08
2023-03-08T07:15:58.352Z,17.52
2023-03-08T07:18:25.512Z,17.30
2023-03-08T07:20:53.548Z,20.10
2023-03-08T07:23:20.004Z,30.85
2023-03-08T07:25:46.482Z,14.85
2023-03-08T07:28:13.197Z,17.70
2023-03-08T07:30:39.886Z,24.05
2023-03-08T07:33:06.748Z,28.98
2023-03-08T07:35:33.288Z,22.48
2023-03-08T07:37:59.733Z,17.80
2023-03-08T07:40:26.359Z,13.85
2023-03-08T07:42:52.892Z,21.35
2023-03-08T07:45:42.669Z,17.38
2023-03-08T07:48:09.191Z,18.63
2023-03-08T07:50:36.669Z,18.13
2023-03-08T07:53:03.314Z,14.93
2023-03-08T07:55:30.113Z,16.85
2023-03-08T07:57:56.644Z,16.80
2023-03-08T08:00:23.232Z,16.05
2023-03-08T08:02:49.772Z,14.10
2023-03-08T08:05:16.404Z,17.75
2023-03-08T08:07:46.643Z,14.25
2023-03-08T08:10:13.120Z,14.07
2023-03-08T08:12:39.919Z,19.25
2023-03-08T08:15:07.250Z,19.00
2023-03-08T08:17:33.709Z,18.08
2023-03-08T08:20:00.538Z,21.90
2023-03-08T08:22:27.010Z,19.35
2023-03-08T08:24:53.568Z,17.55
2023-03-08T08:27:20.079Z,15.77
2023-03-08T08:29:46.725Z,19.35
2023-03-08T08:32:13.257Z,19.85
2023-03-08T08:34:39.838Z,21.55
2023-03-08T08:37:06.463Z,20.48
2023-03-08T08:39:33.004Z,25.83
2023-03-08T08:41:59.605Z,22.00
2023-03-08T08:44:26.192Z,22.33
2023-03-08T08:46:52.938Z,19.65
2023-03-08T08:49:19.395Z,20.70
2023-03-08T08:51:45.960Z,28.60
2023-03-08T08:54:12.616Z,23.55
2023-03-08T08:56:39.249Z,22.85
2023-03-08T08:59:05.972Z,20.33
2023-03-08T09:01:33.649Z,23.30
2023-03-08T09:04:00.508Z,27.27
2023-03-08T09:06:28.480Z,22.80
2023-03-08T09:08:57.874Z,20.90
2023-03-08T09:11:25.506Z,24.95
2023-03-08T09:13:52.608Z,32.72
2023-03-08T09:16:23.406Z,16.95
2023-03-08T09:18:50.855Z,19.67
2023-03-08T09:21:18.083Z,15.57
2023-03-08T09:23:45.378Z,20.50
2023-03-08T09:26:12.373Z,17.87
2023-03-08T09:28:39.070Z,22.42
2023-03-08T09:31:08.272Z,16.23
2023-03-08T09:33:34.716Z,21.35
2023-03-08T09:36:01.383Z,22.02
2023-03-08T09:38:27.840Z,20.23
2023-03-08T09:41:33.103Z,19.63
2023-03-08T09:44:33.169Z,20.38
2023-03-08T09:47:13.499Z,21.65
2023-03-08T09:49:44.351Z,20.23
2023-03-08T09:52:17.666Z,20.95
2023-03-08T09:54:46.022Z,19.27
2023-03-08T09:57:24.151Z,24.70
2023-03-08T09:59:55.747Z,15.77
2023-03-08T10:02:36.250Z,17.35
2023-03-08T10:05:24.836Z,17.42
2023-03-08T10:08:00.585Z,16.05
2023-03-08T10:10:34.664Z,17.67
2023-03-08T10:13:24.296Z,20.25
2023-03-08T10:15:54.357Z,18.77
2023-03-08T10:18:39.182Z,19.60
2023-03-08T10:21:09.846Z,19.25
2023-03-08T10:23:38.369Z,23.05
2023-03-08T10:26:09.608Z,20.33
2023-03-08T10:28:36.070Z,22.50
2023-03-08T10:31:16.082Z,18.15
2023-03-08T10:33:42.669Z,17.45
2023-03-08T10:36:21.505Z,21.80
2023-03-08T10:39:00.500Z,21.63
2023-03-08T10:41:29.126Z,28.65
2023-03-08T10:43:56.463Z,21.65
2023-03-08T10:46:28.767Z,24.48
2023-03-08T10:49:05.846Z,20.92
2023-03-08T10:51:32.529Z,19.40
2023-03-08T10:54:01.651Z,25.13
2023-03-08T10:56:38.672Z,19.40
2023-03-08T10:59:07.141Z,21.63
2023-03-08T11:01:35.881Z,23.55
2023-03-08T11:04:15.039Z,15.77
2023-03-08T11:06:42.065Z,17.92
2023-03-08T11:09:38.014Z,20.98
2023-03-08T11:12:04.882Z,18.48
2023-03-08T11:14:31.504Z,19.60
2023-03-08T11:17:13.149Z,19.35
2023-03-08T11:20:01.151Z,15.65
2023-03-08T11:22:50.221Z,19.75
2023-03-08T11:25:20.152Z,20.73
2023-03-08T11:28:05.362Z,16.17
2023-03-08T11:30:43.568Z,15.18
2023-03-08T11:33:32.998Z,14.35
2023-03-08T11:36:18.241Z,18.90
2023-03-08T11:38:51.810Z,15.18
2023-03-08T11:41:29.776Z,24.63
2023-03-08T11:44:26.082Z,18.05
2023-03-08T11:47:24.041Z,16.83
2023-03-08T11:50:15.416Z,16.25
2023-03-08T11:52:53.898Z,15.63
2023-03-08T11:55:31.855Z,15.18
2023-03-08T12:00:40.114Z,11.55
2023-03-08T12:03:18.427Z,15.52
2023-03-08T12:05:52.559Z,15.13
2023-03-08T12:08:29.865Z,12.15
2023-03-08T12:11:07.935Z,11.90
2023-03-08T12:16:31.017Z,12.68
2023-03-08T12:19:19.872Z,11.80
2023-03-08T12:22:01.481Z,10.43
2023-03-08T12:24:52.941Z,10.60
2023-03-08T12:27:26.053Z,12.32
2023-03-08T12:30:16.357Z,11.07
2023-03-08T12:32:44.262Z,14.05
2023-03-08T12:35:22.567Z,15.20
2023-03-08T12:38:03.193Z,12.50
2023-03-08T12:40:48.258Z,14.02
2023-03-08T12:43:32.952Z,13.60
2023-03-08T12:45:59.575Z,12.35
2023-03-08T12:48:29.678Z,13.45
2023-03-08T12:51:18.500Z,14.80
2023-03-08T12:53:50.828Z,15.23
2023-03-08T12:56:29.897Z,12.38
2023-03-08T12:59:02.287Z,10.85
2023-03-08T13:01:43.806Z,10.48
2023-03-08T13:04:40.042Z,9.98
2023-03-08T13:07:21.448Z,12.00
2023-03-08T13:09:54.999Z,13.57
2023-03-08T13:12:39.849Z,10.75
2023-03-08T13:15:12.111Z,10.80
2023-03-08T13:17:41.677Z,12.55
2023-03-08T13:20:24.497Z,17.67
2023-03-08T13:23:01.611Z,11.57
2023-03-08T13:25:41.468Z,9.85
2023-03-08T13:28:46.725Z,13.32
2023-03-08T13:31:20.525Z,10.75
2023-03-08T13:33:58.247Z,12.48
2023-03-08T13:36:26.893Z,8.73
2023-03-08T13:39:02.275Z,12.18
2023-03-08T13:41:48.691Z,8.50
2023-03-08T13:44:21.226Z,9.75
2023-03-08T13:46:51.415Z,6.07
2023-03-08T13:49:27.142Z,5.80
2023-03-08T13:51:57.411Z,4.18
2023-03-08T13:54:28.603Z,4.15
2023-03-08T13:57:00.157Z,2.20
2023-03-08T13:59:27.279Z,2.58
2023-03-08T14:01:54.534Z,0.85
2023-03-08T14:04:30.944Z,0.40
2023-03-08T14:06:59.938Z,0.50
2023-03-08T14:09:27.492Z,5.07
2023-03-08T14:12:06.577Z,4.45
2023-03-08T14:14:37.032Z,0.93
2023-03-08T14:17:05.010Z,8.82
2023-03-08T14:19:36.034Z,1.23
2023-03-08T14:22:10.228Z,2.25
2023-03-08T14:24:37.212Z,1.30
2023-03-08T14:27:31.218Z,0.98
2023-03-08T14:30:17.837Z,11.88
2023-03-08T14:33:14.022Z,5.03
2023-03-08T14:35:45.184Z,0.57
2023-03-08T14:38:32.745Z,2.10
2023-03-08T14:41:03.529Z,7.60
2023-03-08T14:43:30.046Z,1.60
2023-03-08T14:46:05.434Z,0.70
2023-03-08T14:48:36.963Z,1.42
2023-03-08T14:51:25.479Z,0.68
2023-03-08T14:54:00.417Z,1.50
2023-03-08T14:56:29.212Z,8.40
2023-03-08T14:59:00.387Z,1.00
2023-03-08T15:01:32.702Z,1.30
2023-03-08T15:03:59.754Z,0.98
2023-03-08T15:06:32.917Z,1.65
2023-03-08T15:09:00.979Z,1.75
2023-03-08T15:13:55.301Z,1.05
2023-03-08T15:16:21.855Z,0.40
2023-03-08T15:18:48.370Z,3.70
2023-03-08T15:21:20.700Z,1.25
2023-03-08T15:23:47.627Z,0.68
2023-03-08T15:26:18.308Z,0.55
2023-03-08T15:28:44.987Z,0.98
2023-03-08T15:31:11.453Z,2.33
2023-03-08T15:33:37.911Z,0.52
2023-03-08T15:36:05.270Z,0.43
2023-03-08T15:38:31.811Z,0.45
2023-03-08T15:40:58.272Z,1.65
2023-03-08T15:43:24.813Z,2.40
2023-03-08T15:45:51.299Z,0.45
2023-03-08T15:48:18.813Z,2.33
2023-03-08T15:50:45.707Z,0.95
2023-03-08T15:53:18.400Z,0.75
2023-03-08T15:55:50.065Z,0.57
2023-03-08T15:58:16.516Z,3.22
2023-03-08T16:00:43.061Z,0.80
2023-03-08T16:03:13.646Z,1.48
2023-03-08T16:05:40.499Z,1.48
2023-03-08T16:08:07.038Z,0.90
2023-03-08T16:10:35.173Z,2.58
2023-03-08T16:13:01.913Z,0.90
2023-03-08T16:15:28.428Z,0.63
2023-03-08T16:17:54.902Z,0.88
2023-03-08T16:20:21.377Z,1.70
2023-03-08T16:22:47.868Z,4.57
2023-03-08T16:25:14.352Z,1.90
2023-03-08T16:27:40.897Z,3.40
2023-03-08T16:30:08.418Z,1.67
2023-03-08T16:32:34.982Z,0.57
2023-03-08T16:35:01.515Z,1.05
2023-03-08T16:37:28.158Z,0.60
2023-03-08T16:39:55.001Z,0.45
2023-03-08T16:42:22.234Z,0.32
2023-03-08T16:44:51.493Z,0.83
2023-03-08T16:47:19.231Z,0.93
2023-03-08T16:49:46.042Z,1.08
2023-03-08T16:52:14.597Z,1.17
2023-03-08T16:54:41.262Z,1.80
2023-03-08T16:57:18.603Z,0.95
2023-03-08T17:02:17.590Z,3.72
2023-03-08T17:04:44.339Z,2.58
2023-03-08T17:07:11.373Z,1.65
2023-03-08T17:09:39.315Z,0.63
2023-03-08T17:12:06.801Z,2.35
2023-03-08T17:14:34.839Z,0.70
2023-03-08T17:17:02.345Z,0.98
2023-03-08T17:19:28.879Z,1.10
2023-03-08T17:21:55.653Z,1.52
2023-03-08T17:24:22.733Z,1.55
2023-03-08T17:26:52.461Z,1.50
2023-03-08T17:29:19.507Z,1.15
2023-03-08T17:31:46.357Z,0.90
2023-03-08T17:34:12.826Z,1.58
2023-03-08T17:36:39.700Z,1.90
2023-03-08T17:39:06.315Z,2.33
2023-03-08T17:41:32.826Z,1.65
2023-03-08T17:43:59.385Z,2.88
2023-03-08T17:46:26.498Z,0.73
2023-03-08T17:48:54.449Z,4.60
2023-03-08T17:51:24.772Z,1.35
2023-03-08T17:53:51.551Z,9.63
2023-03-08T17:56:23.535Z,2.05
2023-03-08T17:58:50.004Z,1.58
2023-03-08T18:01:18.947Z,2.97
2023-03-08T18:03:46.393Z,2.83
2023-03-08T18:06:24.341Z,1.38
2023-03-08T18:08:51.693Z,2.75
2023-03-08T18:11:18.174Z,3.60
2023-03-08T18:13:44.976Z,0.80
2023-03-08T18:16:11.454Z,0.40
2023-03-08T18:18:38.009Z,2.75
2023-03-08T18:21:13.149Z,0.70
2023-03-08T18:23:41.524Z,0.95
2023-03-08T18:26:08.019Z,2.58
2023-03-08T18:28:34.497Z,2.45
2023-03-08T18:31:06.125Z,1.65
2023-03-08T18:33:32.708Z,2.72
2023-03-08T18:35:59.284Z,4.30
2023-03-08T18:38:25.833Z,1.35
2023-03-08T18:40:52.611Z,1.52
2023-03-08T18:43:19.191Z,2.67
2023-03-08T18:45:53.357Z,2.45
2023-03-08T18:48:21.372Z,3.20
2023-03-08T18:50:47.846Z,0.88
2023-03-08T18:53:15.027Z,0.80
2023-03-08T18:55:52.152Z,1.50
2023-03-08T18:58:18.636Z,2.63
2023-03-08T19:00:45.106Z,2.65
2023-03-08T19:03:11.739Z,2.50
2023-03-08T19:05:38.222Z,2.88
2023-03-08T19:08:04.747Z,1.67
2023-03-08T19:10:33.209Z,1.60
2023-03-08T19:12:59.788Z,1.80
2023-03-08T19:15:26.457Z,2.90
2023-03-08T19:17:57.235Z,0.75
2023-03-08T19:20:24.038Z,0.60
2023-03-08T19:22:50.672Z,0.60
2023-03-08T19:25:17.191Z,1.23
2023-03-08T19:27:43.787Z,0.55
2023-03-08T19:30:11.012Z,0.47
2023-03-08T19:32:37.621Z,0.30
2023-03-08T19:35:04.498Z,1.02
2023-03-08T19:37:31.097Z,0.38
2023-03-08T19:39:58.499Z,2.55
2023-03-08T19:44:52.258Z,0.70
2023-03-08T19:47:19.114Z,3.10
2023-03-08T19:49:45.977Z,1.92
2023-03-08T19:52:13.305Z,0.90
2023-03-08T19:54:40.713Z,1.23
2023-03-08T19:57:07.900Z,0.57
2023-03-08T19:59:34.433Z,0.68
2023-03-08T20:02:00.921Z,1.02
2023-03-08T20:04:31.217Z,0.50
2023-03-08T20:07:01.360Z,5.32
2023-03-08T20:09:28.381Z,0.70
2023-03-08T20:11:58.463Z,2.72
2023-03-08T20:14:26.581Z,2.70
2023-03-08T20:16:53.176Z,0.70
2023-03-08T20:19:19.773Z,0.60
2023-03-08T20:21:46.593Z,0.90
2023-03-08T20:24:13.069Z,0.35
2023-03-08T20:26:39.598Z,0.88
2023-03-08T20:29:06.218Z,0.75
2023-03-08T20:31:33.040Z,1.75
2023-03-08T20:33:59.756Z,0.77
2023-03-08T20:36:26.564Z,0.90
2023-03-08T20:38:53.054Z,0.45
2023-03-08T20:41:21.171Z,1.23
2023-03-08T20:46:17.507Z,1.23
2023-03-08T20:48:46.233Z,3.08
2023-03-08T20:51:17.689Z,0.98
2023-03-08T20:53:44.972Z,0.30
2023-03-08T20:56:16.046Z,0.90
2023-03-08T20:58:43.145Z,0.60
2023-03-08T21:01:12.407Z,1.35
2023-03-08T21:03:39.161Z,0.40
2023-03-08T21:06:23.526Z,1.33
2023-03-08T21:08:50.666Z,0.38
2023-03-08T21:11:17.811Z,0.30
2023-03-08T21:13:48.057Z,0.63
2023-03-08T21:16:16.294Z,1.55
2023-03-08T21:18:43.188Z,1.17
2023-03-08T21:21:17.808Z,1.05
2023-03-08T21:23:44.293Z,0.75
2023-03-08T21:26:12.602Z,0.80
2023-03-08T21:28:40.570Z,0.57
2023-03-08T21:31:10.998Z,1.98
2023-03-08T21:33:37.714Z,0.20
2023-03-08T21:36:04.666Z,1.13
2023-03-08T21:38:31.279Z,0.75
2023-03-08T21:40:57.817Z,0.45
2023-03-08T21:43:24.534Z,1.40
2023-03-08T21:45:51.043Z,0.68
2023-03-08T21:48:17.751Z,1.63
2023-03-08T21:50:44.576Z,2.17
2023-03-08T21:53:11.085Z,5.00
2023-03-08T21:55:41.592Z,1.15
2023-03-08T21:58:09.017Z,1.45
2023-03-08T22:00:35.694Z,2.55
2023-03-08T22:03:02.352Z,2.58
2023-03-08T22:05:30.300Z,1.33
2023-03-08T22:07:57.346Z,3.50
2023-03-08T22:10:23.898Z,1.85
2023-03-08T22:12:50.508Z,3.13
2023-03-08T22:15:17.025Z,3.58
2023-03-08T22:17:43.651Z,2.22
2023-03-08T22:20:11.079Z,1.85
2023-03-08T22:22:38.810Z,1.73
2023-03-08T22:25:07.112Z,1.98
2023-03-08T22:27:34.112Z,1.58
2023-03-08T22:30:00.739Z,2.15
2023-03-08T22:32:27.445Z,1.63
2023-03-08T22:34:54.100Z,1.55
2023-03-08T22:37:21.066Z,1.73
2023-03-08T22:39:47.683Z,2.25
2023-03-08T22:42:16.495Z,1.83
2023-03-08T22:44:43.472Z,3.22
2023-03-08T22:47:10.055Z,1.75
2023-03-08T22:49:36.672Z,1.77
2023-03-08T22:52:03.430Z,0.68
2023-03-08T22:54:30.264Z,3.60
2023-03-08T22:56:56.883Z,1.70
2023-03-08T22:59:23.576Z,1.70
2023-03-08T23:01:50.085Z,1.05
2023-03-08T23:04:16.964Z,1.35
2023-03-08T23:06:44.114Z,3.22
2023-03-08T23:09:11.566Z,1.23
2023-03-08T23:11:39.059Z,1.95
2023-03-08T23:14:09.420Z,2.60
2023-03-08T23:16:36.408Z,1.20
2023-03-08T23:19:03.587Z,4.22
2023-03-08T23:21:30.630Z,4.07
2023-03-08T23:23:57.925Z,1.83
2023-03-08T23:26:26.000Z,1.45
2023-03-08T23:28:57.547Z,1.25
2023-03-08T23:31:27.463Z,0.85
2023-03-08T23:33:54.381Z,2.35
2023-03-08T23:36:24.234Z,1.10
2023-03-08T23:38:51.567Z,1.83
2023-03-08T23:41:18.240Z,1.67
2023-03-08T23:43:45.565Z,1.05
2023-03-08T23:46:14.856Z,1.20
2023-03-08T23:48:41.964Z,2.17
2023-03-08T23:51:12.464Z,1.20
2023-03-08T23:53:39.361Z,3.38
2023-03-08T23:56:06.868Z,1.63
2023-03-08T23:58:33.592Z,1.58
